Time;durP1;ratioP1;P1;durP2;ratioP2;P2;SDS_P1;SDS_P2;PMS_P1;PMS_P2;Temp;Humidity;BMP_temperature;BMP_pressure;BME280_temperature;BME280_humidity;BME280_pressure;Samples;Min_cycle;Max_cycle;Signal;HPM_P1;HPM_P2
2023/01/22 00:01:33;;;;;;;2.63;2.33;;;;;;;-0.80;96.78;103648.50;5035716;27;96630;-28
2023/01/22 00:03:58;;;;;;;4.97;2.97;;;;;;;-0.81;96.63;103644.94;5033827;28;96582;-29
2023/01/22 00:06:24;;;;;;;1.35;1.25;;;;;;;-0.79;96.65;103650.28;5034922;27;99296;-31
2023/01/22 00:08:50;;;;;;;1.77;1.67;;;;;;;-0.83;96.44;103632.41;5035270;28;97315;-28
2023/01/22 00:11:17;;;;;;;2.28;1.13;;;;;;;-0.84;96.61;103638.59;5034052;28;96700;-29
2023/01/22 00:13:43;;;;;;;2.08;1.45;;;;;;;-0.82;96.52;103632.47;5034241;28;96923;-30
2023/01/22 00:16:11;;;;;;;2.90;1.65;;;;;;;-0.80;96.77;103627.22;5033647;28;100966;-28
2023/01/22 00:18:37;;;;;;;2.60;2.35;;;;;;;-0.82;96.32;103624.50;5034715;28;97806;-28
2023/01/22 00:21:02;;;;;;;3.72;2.00;;;;;;;-0.83;96.23;103625.38;5034798;27;96503;-28
2023/01/22 00:23:27;;;;;;;4.03;2.85;;;;;;;-0.80;96.33;103628.09;5034644;28;97037;-28
2023/01/22 00:26:03;;;;;;;1.90;1.15;;;;;;;-0.86;96.29;103627.91;5034952;27;97847;-30
2023/01/22 00:28:30;;;;;;;2.42;1.52;;;;;;;-0.85;96.27;103619.09;5032574;27;101127;-28
2023/01/22 00:31:01;;;;;;;1.63;1.48;;;;;;;-0.88;96.29;103630.53;5033574;28;96596;-31
2023/01/22 00:33:27;;;;;;;2.92;1.88;;;;;;;-0.89;96.49;103617.19;5035412;28;96646;-28
2023/01/22 00:35:53;;;;;;;3.20;1.88;;;;;;;-0.90;96.28;103613.63;5033258;28;101111;-29
2023/01/22 00:38:18;;;;;;;6.03;3.22;;;;;;;-0.91;96.50;103613.56;5034859;28;98767;-29
2023/01/22 00:40:43;;;;;;;4.55;2.72;;;;;;;-0.89;96.67;103614.53;5034903;27;96460;-29
2023/01/22 00:43:09;;;;;;;3.72;2.97;;;;;;;-0.85;96.69;103611.09;5035072;28;96774;-28
2023/01/22 00:45:34;;;;;;;2.75;2.45;;;;;;;-0.87;96.68;103616.38;5034104;27;99652;-28
2023/01/22 00:48:00;;;;;;;3.03;2.05;;;;;;;-0.89;96.54;103611.84;5034915;28;97189;-28
2023/01/22 00:50:25;;;;;;;2.38;1.88;;;;;;;-0.89;96.58;103611.84;5034619;27;96703;-29
2023/01/22 00:52:50;;;;;;;1.95;1.73;;;;;;;-0.90;96.92;103613.63;5034730;28;96867;-28
2023/01/22 00:55:16;;;;;;;3.88;2.00;;;;;;;-0.88;96.95;103614.56;5034356;27;99199;-28
2023/01/22 00:57:41;;;;;;;2.72;1.48;;;;;;;-0.88;96.85;103627.00;5034116;28;99095;-28
2023/01/22 01:00:08;;;;;;;3.58;2.17;;;;;;;-0.88;97.09;103619.91;5034631;27;96452;-28
2023/01/22 01:03:25;;;;;;;1.85;1.63;;;;;;;-0.81;97.18;103630.72;5033555;28;96853;-28
2023/01/22 01:05:19;;;;;;;1.77;1.67;;;;;;;-0.81;97.16;103628.06;5034138;28;98612;-28
2023/01/22 01:07:44;;;;;;;5.22;2.28;;;;;;;-0.76;96.84;103615.78;5034279;28;97781;-29
2023/01/22 01:10:10;;;;;;;1.85;1.73;;;;;;;-0.79;96.61;103624.56;5033807;27;96493;-29
2023/01/22 01:12:35;;;;;;;3.55;2.20;;;;;;;-0.83;96.55;103601.41;5034590;28;96804;-31
2023/01/22 01:15:00;;;;;;;6.18;3.17;;;;;;;-0.80;96.95;103609.47;5034353;28;98299;-28
2023/01/22 01:17:26;;;;;;;4.38;3.42;;;;;;;-0.77;96.92;103601.59;5034071;28;98092;-28
2023/01/22 01:19:51;;;;;;;2.97;2.15;;;;;;;-0.73;96.73;103600.81;5034672;27;96494;-28
2023/01/22 01:22:16;;;;;;;1.65;1.40;;;;;;;-0.69;96.71;103601.81;5034483;28;96916;-30
2023/01/22 01:24:42;;;;;;;1.75;1.45;;;;;;;-0.66;96.72;103604.56;5033995;27;97982;-28
2023/01/22 01:27:07;;;;;;;3.40;2.10;;;;;;;-0.65;96.66;103601.94;5034388;28;97257;-28
2023/01/22 01:29:32;;;;;;;2.17;1.95;;;;;;;-0.64;96.35;103602.88;5034201;27;96670;-28
2023/01/22 01:31:58;;;;;;;3.00;1.75;;;;;;;-0.65;96.36;103606.38;5034765;28;96735;-28
2023/01/22 01:34:23;;;;;;;3.40;2.42;;;;;;;-0.63;96.32;103603.75;5033264;27;99257;-29
2023/01/22 01:36:48;;;;;;;5.07;2.97;;;;;;;-0.59;96.37;103603.91;5033986;28;97897;-28
2023/01/22 01:39:14;;;;;;;1.58;1.48;;;;;;;-0.57;96.32;103598.59;5035632;27;96641;-28
2023/01/22 01:41:39;;;;;;;4.05;1.48;;;;;;;-0.55;96.72;103592.50;5037694;28;96995;-28
2023/01/22 01:44:12;;;;;;;1.58;1.48;;;;;;;-0.53;95.88;103590.75;5036837;28;99270;-28
2023/01/22 01:47:00;;;;;;;1.98;1.02;;;;;;;-0.48;96.00;103585.56;5037332;28;98084;-28
2023/01/22 01:49:31;;;;;;;2.17;1.75;;;;;;;-0.46;95.69;103586.50;5037680;28;96591;-28
2023/01/22 01:52:01;;;;;;;4.43;2.33;;;;;;;-0.47;95.91;103582.06;5038294;28;96440;-28
2023/01/22 01:54:28;;;;;;;3.60;2.63;;;;;;;-0.43;95.69;103581.25;5035570;28;101353;-28
2023/01/22 01:57:03;;;;;;;1.52;1.15;;;;;;;-0.41;95.90;103578.66;5035696;28;101038;-29
2023/01/22 01:59:32;;;;;;;3.80;1.65;;;;;;;-0.39;95.84;103580.50;5035635;28;96604;-28
2023/01/22 02:01:59;;;;;;;2.03;1.58;;;;;;;-0.38;95.64;103574.34;5036029;28;96781;-29
2023/01/22 02:04:25;;;;;;;1.75;1.40;;;;;;;-0.34;95.52;103570.88;5035604;28;100899;-29
2023/01/22 02:06:51;;;;;;;4.18;2.13;;;;;;;-0.29;95.65;103573.66;5035404;28;100938;-28
2023/01/22 02:09:16;;;;;;;1.08;1.00;;;;;;;-0.28;95.62;103563.06;5037279;27;96484;-29
2023/01/22 02:11:42;;;;;;;1.92;1.50;;;;;;;-0.23;95.52;103563.19;5037284;28;96764;-28
2023/01/22 02:14:15;;;;;;;1.27;1.02;;;;;;;-0.22;95.26;103567.66;5036645;27;99351;-28
2023/01/22 02:16:41;;;;;;;2.55;1.58;;;;;;;-0.20;95.07;103560.59;5035760;28;100362;-28
2023/01/22 02:19:06;;;;;;;4.97;1.48;;;;;;;-0.19;95.03;103565.09;5037189;27;96582;-28
2023/01/22 02:21:43;;;;;;;2.00;1.35;;;;;;;-0.17;95.18;103551.78;5036831;28;96598;-29
2023/01/22 02:24:11;;;;;;;1.00;0.93;;;;;;;-0.17;95.38;103566.00;5034386;28;99009;-29
2023/01/22 02:26:37;;;;;;;1.48;1.30;;;;;;;-0.14;95.11;103565.19;5035324;28;100791;-28
2023/01/22 02:29:04;;;;;;;0.82;0.82;;;;;;;-0.12;95.06;103556.41;5035663;28;96517;-29
2023/01/22 02:31:30;;;;;;;2.60;1.13;;;;;;;-0.08;95.20;103552.03;5035594;28;96785;-28
2023/01/22 02:33:55;;;;;;;1.70;1.42;;;;;;;-0.06;95.36;103555.66;5036402;28;98054;-29
2023/01/22 02:36:21;;;;;;;1.85;1.50;;;;;;;-0.06;95.10;103547.66;5036641;28;97762;-29
2023/01/22 02:38:46;;;;;;;2.97;2.45;;;;;;;-0.04;94.85;103545.94;5036701;28;96625;-28
2023/01/22 02:41:12;;;;;;;1.20;1.08;;;;;;;-0.03;94.94;103545.97;5037163;28;96746;-28
2023/01/22 02:43:37;;;;;;;1.80;0.73;;;;;;;0.01;94.59;103552.28;5034901;28;101086;-30
2023/01/22 02:46:03;;;;;;;1.60;1.38;;;;;;;0.02;94.76;103556.72;5036528;28;97895;-29
2023/01/22 02:48:29;;;;;;;4.70;2.85;;;;;;;0.00;94.71;103547.84;5034750;28;96484;-28
2023/01/22 02:50:54;;;;;;;2.45;1.75;;;;;;;0.01;94.66;103557.63;5035745;28;96719;-28
2023/01/22 02:53:19;;;;;;;1.80;1.45;;;;;;;0.05;94.73;103554.19;5036478;27;97371;-29
2023/01/22 02:55:45;;;;;;;1.77;1.17;;;;;;;0.07;94.50;103555.13;5036007;28;99041;-28
2023/01/22 02:58:11;;;;;;;2.17;1.35;;;;;;;0.07;94.44;103546.19;5036258;27;96584;-29
2023/01/22 03:00:36;;;;;;;0.75;0.75;;;;;;;0.06;94.75;103545.31;5036296;28;96816;-28
2023/01/22 03:03:06;;;;;;;1.20;0.88;;;;;;;0.08;94.46;103538.25;5035725;27;99646;-29
2023/01/22 03:05:32;;;;;;;1.50;0.98;;;;;;;0.10;94.39;103536.53;5035106;28;98875;-28
2023/01/22 03:07:58;;;;;;;3.45;1.33;;;;;;;0.09;94.61;103537.38;5034844;28;96570;-28
2023/01/22 03:10:23;;;;;;;1.88;1.52;;;;;;;0.11;94.43;103542.75;5036448;28;96781;-28
2023/01/22 03:21:14;;;;;;;4.13;2.17;;;;;;;0.14;94.28;103529.50;5036418;28;96528;-29
2023/01/22 03:23:40;;;;;;;2.88;1.27;;;;;;;0.18;94.20;103534.94;5034913;28;99423;-28
2023/01/22 03:26:06;;;;;;;1.77;1.45;;;;;;;0.15;94.12;103526.88;5034183;28;100966;-28
2023/01/22 03:28:31;;;;;;;1.95;1.45;;;;;;;0.18;94.29;103531.38;5035851;27;96464;-28
2023/01/22 03:30:57;;;;;;;2.70;1.63;;;;;;;0.20;94.35;103527.91;5036160;28;96848;-29
2023/01/22 03:33:22;;;;;;;3.08;1.80;;;;;;;0.19;93.74;103523.44;5035692;27;97946;-28
2023/01/22 03:35:48;;;;;;;2.35;1.17;;;;;;;0.21;93.65;103520.78;5035513;28;98950;-29
2023/01/22 03:38:13;;;;;;;2.50;1.70;;;;;;;0.19;93.92;103510.13;5033889;28;96627;-28
2023/01/22 03:40:39;;;;;;;0.98;0.77;;;;;;;0.21;93.82;103520.78;5035748;28;96678;-29
2023/01/22 03:43:04;;;;;;;1.75;1.05;;;;;;;0.23;93.67;103519.06;5036026;27;96783;-29
2023/01/22 03:45:32;;;;;;;2.30;1.80;;;;;;;0.27;93.75;103522.72;5034086;28;98030;-28
2023/01/22 03:47:57;;;;;;;2.15;1.73;;;;;;;0.27;93.93;103518.28;5034325;28;96712;-29
2023/01/22 03:50:22;;;;;;;3.60;1.48;;;;;;;0.30;93.74;103521.03;5035527;28;96809;-29
2023/01/22 03:52:48;;;;;;;1.55;1.10;;;;;;;0.32;93.50;103508.63;5035454;27;97877;-29
2023/01/22 03:55:13;;;;;;;0.75;0.75;;;;;;;0.31;93.53;103511.25;5035332;28;102300;-29
2023/01/22 03:57:38;;;;;;;1.60;1.13;;;;;;;0.31;93.26;103506.84;5035607;27;96473;-28
2023/01/22 04:00:06;;;;;;;2.85;1.58;;;;;;;0.33;93.14;103513.09;5035793;28;96775;-30
2023/01/22 04:02:32;;;;;;;3.58;2.13;;;;;;;0.32;93.47;103505.97;5032238;27;101154;-29
2023/01/22 04:04:57;;;;;;;1.80;1.52;;;;;;;0.34;93.44;103514.03;5035261;28;97839;-28
2023/01/22 04:07:23;;;;;;;2.13;1.20;;;;;;;0.36;92.90;103512.28;5035751;27;96461;-28
2023/01/22 04:09:48;;;;;;;1.27;0.90;;;;;;;0.35;93.42;103511.38;5035239;28;96800;-29
2023/01/22 04:12:13;;;;;;;2.55;1.17;;;;;;;0.37;93.32;103506.09;5034797;27;99744;-28
2023/01/22 04:14:39;;;;;;;2.42;1.70;;;;;;;0.37;92.88;103501.66;5034796;28;106073;-29
2023/01/22 04:17:04;;;;;;;1.77;1.23;;;;;;;0.37;93.41;103509.66;5035376;27;96489;-28
2023/01/22 04:19:30;;;;;;;0.93;0.88;;;;;;;0.37;92.87;103503.41;5035335;28;96811;-29
2023/01/22 04:21:55;;;;;;;1.73;1.13;;;;;;;0.39;92.96;103507.03;5034869;27;99004;-29
2023/01/22 04:24:20;;;;;;;1.88;0.98;;;;;;;0.39;93.30;103502.59;5033926;28;98957;-28
2023/01/22 04:26:46;;;;;;;0.10;0.10;;;;;;;0.35;93.03;103495.38;5034717;27;96514;-28
2023/01/22 04:29:11;;;;;;;1.52;1.25;;;;;;;0.37;93.35;103498.97;5035287;28;96741;-29
2023/01/22 04:31:36;;;;;;;2.00;1.60;;;;;;;0.38;93.20;103494.53;5035096;27;97306;-28
2023/01/22 04:34:02;;;;;;;1.13;1.02;;;;;;;0.40;93.19;103498.16;5035158;28;97192;-28
2023/01/22 04:36:27;;;;;;;2.40;0.95;;;;;;;0.39;93.02;103499.91;5035107;27;96484;-29
2023/01/22 04:38:52;;;;;;;3.95;1.13;;;;;;;0.40;92.98;103499.03;5034994;28;96444;-28
2023/01/22 04:41:17;;;;;;;1.35;1.25;;;;;;;0.38;93.13;103492.81;5034460;28;98925;-28
2023/01/22 04:43:43;;;;;;;2.63;1.85;;;;;;;0.41;93.23;103492.88;5034765;28;106015;-28
2023/01/22 04:46:08;;;;;;;1.05;1.00;;;;;;;0.41;93.19;103494.63;5034959;28;96409;-28
2023/01/22 04:48:33;;;;;;;1.05;1.00;;;;;;;0.40;93.16;103491.03;5035128;28;96797;-28
2023/01/22 04:50:59;;;;;;;0.95;0.65;;;;;;;0.40;93.00;103493.72;5034072;27;97977;-28
2023/01/22 04:53:24;;;;;;;1.40;1.23;;;;;;;0.41;93.13;103495.53;5034890;28;97263;-28
2023/01/22 04:55:49;;;;;;;1.48;1.35;;;;;;;0.40;92.89;103490.16;5034668;27;96606;-29
2023/01/22 04:58:15;;;;;;;1.55;1.13;;;;;;;0.39;92.67;103493.69;5034894;28;96825;-28
2023/01/22 05:00:40;;;;;;;1.73;1.38;;;;;;;0.37;92.89;103493.66;5034599;27;97897;-28
2023/01/22 05:03:05;;;;;;;1.52;1.17;;;;;;;0.37;92.83;103500.75;5034453;28;99448;-29
2023/01/22 05:05:32;;;;;;;0.82;0.82;;;;;;;0.36;92.76;103496.31;5034768;27;96490;-28
2023/01/22 05:07:58;;;;;;;1.33;1.23;;;;;;;0.38;92.96;103495.47;5033519;28;96813;-28
2023/01/22 05:10:24;;;;;;;3.17;1.08;;;;;;;0.40;92.91;103492.81;5033991;28;99146;-28
2023/01/22 05:12:49;;;;;;;3.83;1.13;;;;;;;0.39;92.84;103485.69;5034572;28;97623;-30
2023/01/22 05:15:15;;;;;;;0.75;0.75;;;;;;;0.41;93.05;103494.63;5037458;27;96777;-28
2023/01/22 05:17:41;;;;;;;0.70;0.70;;;;;;;0.37;92.85;103477.66;5036778;28;96778;-29
2023/01/22 05:20:07;;;;;;;1.70;1.40;;;;;;;0.39;92.78;103475.94;5037779;27;100734;-28
2023/01/22 05:22:32;;;;;;;0.45;0.45;;;;;;;0.40;92.80;103491.03;5035729;28;100538;-29
2023/01/22 05:24:57;;;;;;;3.83;1.70;;;;;;;0.44;92.76;103493.81;5036458;28;96637;-29
2023/01/22 05:27:23;;;;;;;1.77;1.05;;;;;;;0.44;92.59;103489.38;5037783;28;96877;-28
2023/01/22 05:29:48;;;;;;;0.68;0.68;;;;;;;0.44;92.67;103494.69;5037461;28;105822;-29
2023/01/22 05:32:14;;;;;;;2.20;0.73;;;;;;;0.44;92.99;103493.81;5037669;28;107648;-29
2023/01/22 05:34:40;;;;;;;1.35;0.85;;;;;;;0.47;92.85;103496.53;5037828;28;96725;-28
2023/01/22 05:37:05;;;;;;;1.50;1.40;;;;;;;0.46;92.77;103494.75;5038030;28;96766;-28
2023/01/22 05:39:30;;;;;;;2.25;1.50;;;;;;;0.48;92.48;103498.31;5036792;27;97880;-28
2023/01/22 05:41:56;;;;;;;2.47;1.88;;;;;;;0.48;92.79;103493.91;5037284;28;100735;-28
2023/01/22 05:44:21;;;;;;;3.60;2.45;;;;;;;0.49;92.71;103498.38;5037734;27;96729;-29
2023/01/22 05:46:47;;;;;;;1.02;0.90;;;;;;;0.50;92.72;103505.53;5038083;28;96759;-28
2023/01/22 05:49:12;;;;;;;1.65;1.55;;;;;;;0.49;92.63;103502.81;5037415;27;97561;-28
2023/01/22 05:51:37;;;;;;;2.67;1.75;;;;;;;0.48;93.00;103499.25;5037097;28;100542;-28
2023/01/22 05:54:03;;;;;;;3.17;2.20;;;;;;;0.47;92.99;103499.19;5037491;28;96614;-28
2023/01/22 05:56:29;;;;;;;2.35;1.88;;;;;;;0.50;93.03;103504.59;5037816;28;96698;-28
2023/01/22 05:58:55;;;;;;;1.77;1.30;;;;;;;0.51;93.05;103509.09;5035590;28;100911;-29
2023/01/22 06:01:20;;;;;;;3.03;1.30;;;;;;;0.54;92.98;103519.81;5036854;28;99209;-28
2023/01/22 06:03:45;;;;;;;1.58;1.48;;;;;;;0.50;92.53;103509.94;5037027;27;96567;-28
2023/01/22 06:06:13;;;;;;;2.10;1.80;;;;;;;0.53;93.12;103513.59;5037336;28;96787;-28
2023/01/22 06:08:39;;;;;;;2.20;1.40;;;;;;;0.56;92.96;103521.66;5035351;28;100652;-29
2023/01/22 06:11:07;;;;;;;1.52;1.15;;;;;;;0.56;92.91;103516.31;5035525;28;100906;-28
2023/01/22 06:13:33;;;;;;;1.10;0.77;;;;;;;0.56;92.93;103518.09;5037282;27;96635;-29
2023/01/22 06:15:59;;;;;;;2.72;1.65;;;;;;;0.54;92.95;103515.38;5035810;28;96880;-29
2023/01/22 06:18:25;;;;;;;3.22;1.45;;;;;;;0.54;92.74;103517.13;5036693;27;99220;-29
2023/01/22 06:20:52;;;;;;;0.70;0.70;;;;;;;0.55;93.00;103522.53;5035844;28;101303;-29
2023/01/22 06:23:17;;;;;;;2.65;1.35;;;;;;;0.56;93.27;103526.09;5034819;28;96922;-28
2023/01/22 06:25:43;;;;;;;2.05;1.40;;;;;;;0.57;93.04;103528.81;5036165;28;96724;-29
2023/01/22 06:28:09;;;;;;;1.73;1.35;;;;;;;0.55;93.27;103519.84;5034927;28;101100;-28
2023/01/22 06:30:35;;;;;;;1.50;1.20;;;;;;;0.55;93.26;103530.53;5037051;28;97260;-29
2023/01/22 06:33:01;;;;;;;5.70;1.10;;;;;;;0.55;93.65;103527.84;5035487;28;96610;-28
2023/01/22 06:35:26;;;;;;;4.63;1.30;;;;;;;0.57;93.49;103530.53;5037020;28;96797;-29
2023/01/22 06:37:52;;;;;;;1.63;1.27;;;;;;;0.56;93.58;103528.75;5036485;27;97971;-29
2023/01/22 06:40:17;;;;;;;2.08;1.27;;;;;;;0.57;93.56;103522.53;5036268;28;99733;-28
2023/01/22 06:42:42;;;;;;;0.65;0.63;;;;;;;0.55;93.35;103514.53;5036977;27;96784;-29
2023/01/22 06:45:08;;;;;;;2.05;1.70;;;;;;;0.54;93.74;103510.03;5036925;28;97711;-28
2023/01/22 06:47:34;;;;;;;0.45;0.45;;;;;;;0.56;93.81;103510.09;5036244;27;100112;-30
2023/01/22 06:49:59;;;;;;;0.70;0.70;;;;;;;0.55;93.69;103513.59;5036273;28;97307;-29
2023/01/22 06:52:24;;;;;;;1.55;1.20;;;;;;;0.55;93.71;103506.53;5036172;27;96618;-28
2023/01/22 06:54:50;;;;;;;2.67;1.45;;;;;;;0.53;93.75;103499.34;5036421;28;98093;-29
2023/01/22 06:57:15;;;;;;;1.42;0.98;;;;;;;0.51;93.90;103504.66;5036415;27;97929;-28
2023/01/22 06:59:41;;;;;;;1.05;0.98;;;;;;;0.52;93.98;103502.88;5036265;28;101356;-30
2023/01/22 07:02:06;;;;;;;1.25;0.82;;;;;;;0.51;93.47;103512.66;5036558;28;96546;-28
2023/01/22 07:04:31;;;;;;;5.53;2.10;;;;;;;0.52;93.83;103513.53;5036594;28;96803;-28
2023/01/22 07:06:57;;;;;;;2.45;1.05;;;;;;;0.51;93.76;103520.63;5035701;27;99012;-30
2023/01/22 07:09:22;;;;;;;2.65;1.17;;;;;;;0.51;93.90;103509.97;5036290;28;100498;-29
2023/01/22 07:11:48;;;;;;;2.90;0.90;;;;;;;0.52;93.65;103513.53;5036267;27;96492;-28
2023/01/22 07:14:13;;;;;;;1.48;0.90;;;;;;;0.49;93.82;103514.38;5036495;28;96770;-28
2023/01/22 07:16:38;;;;;;;3.50;1.77;;;;;;;0.52;93.78;103511.75;5035543;27;97840;-28
2023/01/22 07:19:03;;;;;;;1.75;1.40;;;;;;;0.52;93.87;103513.53;5035376;28;105090;-29
2023/01/22 07:21:29;;;;;;;3.22;1.08;;;;;;;0.54;93.73;103515.38;5035923;27;96693;-29
2023/01/22 07:23:54;;;;;;;0.70;0.65;;;;;;;0.55;93.47;103510.94;5035357;28;96889;-29
2023/01/22 07:26:19;;;;;;;1.52;1.35;;;;;;;0.54;93.54;103506.47;5035676;27;99308;-28
2023/01/22 07:28:45;;;;;;;0.70;0.68;;;;;;;0.55;93.61;103508.25;5035958;28;97279;-31
2023/01/22 07:31:11;;;;;;;0.95;0.70;;;;;;;0.53;93.41;103510.03;5036097;27;96857;-28
2023/01/22 07:33:36;;;;;;;0.80;0.65;;;;;;;0.52;93.36;103514.44;5036501;28;96778;-28
2023/01/22 07:36:02;;;;;;;2.30;0.85;;;;;;;0.55;93.38;103514.53;5035438;27;98040;-29
2023/01/22 07:38:28;;;;;;;0.70;0.70;;;;;;;0.54;93.44;103522.47;5035480;28;97275;-28
2023/01/22 07:40:58;;;;;;;1.88;1.55;;;;;;;0.56;93.25;103531.41;5035352;27;96605;-30
2023/01/22 07:43:23;;;;;;;2.08;1.13;;;;;;;0.56;93.28;103536.75;5035957;28;96622;-28
2023/01/22 07:45:49;;;;;;;1.08;0.80;;;;;;;0.52;93.46;103538.44;5035475;27;104259;-30
2023/01/22 07:48:14;;;;;;;1.02;0.93;;;;;;;0.55;93.25;103548.25;5035561;28;106512;-28
2023/01/22 07:50:39;;;;;;;1.05;0.93;;;;;;;0.56;93.21;103547.41;5035532;27;96765;-29
2023/01/22 07:53:06;;;;;;;1.13;1.02;;;;;;;0.56;93.00;103544.75;5036067;28;96751;-29
2023/01/22 07:55:32;;;;;;;0.80;0.65;;;;;;;0.60;93.20;103554.63;5033975;28;101072;-29
2023/01/22 07:58:03;;;;;;;1.25;0.68;;;;;;;0.62;93.16;103552.88;5035765;28;98109;-29
2023/01/22 08:00:30;;;;;;;1.13;0.63;;;;;;;0.60;92.92;103555.53;5034328;28;96628;-29
2023/01/22 08:02:55;;;;;;;1.08;0.73;;;;;;;0.58;93.18;103546.59;5034122;28;96891;-29
2023/01/22 08:05:20;;;;;;;0.70;0.50;;;;;;;0.60;92.53;103555.53;5034418;27;99245;-29
2023/01/22 08:07:46;;;;;;;0.68;0.57;;;;;;;0.57;93.04;103544.81;5034928;28;98786;-28
2023/01/22 08:10:13;;;;;;;1.23;0.93;;;;;;;0.59;93.01;103543.03;5035176;27;96758;-29
2023/01/22 08:12:40;;;;;;;1.63;1.05;;;;;;;0.58;93.02;103546.59;5034113;28;96585;-29
2023/01/22 08:15:07;;;;;;;0.50;0.50;;;;;;;0.62;92.77;103552.88;5033701;28;101103;-28
2023/01/22 08:17:32;;;;;;;0.28;0.28;;;;;;;0.66;92.81;103562.75;5033573;28;100888;-28
2023/01/22 08:19:57;;;;;;;0.70;0.63;;;;;;;0.63;92.60;103565.38;5035253;27;96681;-29
2023/01/22 08:22:23;;;;;;;0.40;0.40;;;;;;;0.63;92.39;103566.25;5035195;28;96787;-29
2023/01/22 08:24:48;;;;;;;1.48;1.20;;;;;;;0.64;92.79;103561.81;5034688;27;97384;-29
2023/01/22 08:27:13;;;;;;;2.95;0.85;;;;;;;0.68;92.76;103569.03;5035016;28;100590;-28
2023/01/22 08:29:38;;;;;;;1.40;0.80;;;;;;;0.67;92.67;103564.59;5034493;27;96699;-28
2023/01/22 08:32:05;;;;;;;0.65;0.65;;;;;;;0.69;92.62;103569.94;5035074;28;96830;-29
2023/01/22 08:34:31;;;;;;;0.38;0.38;;;;;;;0.69;92.27;103576.19;5034770;28;97369;-29
2023/01/22 08:36:56;;;;;;;0.63;0.63;;;;;;;0.69;92.55;103581.53;5034920;28;97414;-28
2023/01/22 08:39:21;;;;;;;1.20;0.85;;;;;;;0.68;92.47;103582.38;5035165;27;96727;-29
2023/01/22 08:41:47;;;;;;;1.77;1.63;;;;;;;0.67;92.41;103583.25;5035177;28;96805;-29
2023/01/22 08:44:12;;;;;;;2.70;1.55;;;;;;;0.68;92.32;103571.69;5034619;27;97089;-28
2023/01/22 08:46:39;;;;;;;1.48;1.38;;;;;;;0.68;92.08;103571.69;5035024;28;97831;-29
2023/01/22 08:49:06;;;;;;;0.40;0.32;;;;;;;0.66;92.23;103570.75;5032593;28;96716;-30
2023/01/22 08:51:33;;;;;;;0.98;0.80;;;;;;;0.70;92.03;103585.09;5033237;28;96758;-28
2023/01/22 08:53:58;;;;;;;0.90;0.82;;;;;;;0.67;91.91;103569.91;5032784;28;101093;-30
2023/01/22 08:56:23;;;;;;;1.13;0.85;;;;;;;0.65;92.01;103574.31;5034257;28;98834;-28
2023/01/22 08:58:50;;;;;;;1.88;1.02;;;;;;;0.71;92.18;103581.53;5034761;27;96551;-29
2023/01/22 09:01:19;;;;;;;0.65;0.65;;;;;;;0.71;91.92;103582.44;5033459;28;96925;-28
2023/01/22 09:03:44;;;;;;;5.32;1.40;;;;;;;0.67;92.08;103577.91;5034400;28;98276;-28
2023/01/22 09:06:10;;;;;;;0.88;0.57;;;;;;;0.69;91.96;103580.59;5032876;28;100741;-30
2023/01/22 09:08:35;;;;;;;0.82;0.82;;;;;;;0.64;92.17;103583.16;5034782;28;96867;-28
2023/01/22 09:11:03;;;;;;;1.45;1.33;;;;;;;0.65;92.15;103578.75;5035187;28;96845;-28
2023/01/22 09:13:29;;;;;;;1.20;0.55;;;;;;;0.67;91.80;103575.25;5032874;28;100752;-28
2023/01/22 09:15:55;;;;;;;1.10;1.02;;;;;;;0.66;92.01;103570.75;5034368;28;97875;-29
2023/01/22 09:18:20;;;;;;;1.55;1.00;;;;;;;0.73;92.00;103577.16;5032503;28;97228;-28
2023/01/22 09:20:46;;;;;;;0.85;0.73;;;;;;;0.73;91.96;103578.03;5034591;28;96787;-28
2023/01/22 09:23:11;;;;;;;0.85;0.73;;;;;;;0.75;91.76;103580.75;5033310;28;97377;-29
2023/01/22 09:25:36;;;;;;;0.75;0.75;;;;;;;0.75;91.43;103588.75;5034234;28;99340;-28
2023/01/22 09:28:06;;;;;;;0.57;0.57;;;;;;;0.74;91.36;103585.19;5034383;27;96625;-28
2023/01/22 09:30:32;;;;;;;0.68;0.55;;;;;;;0.73;91.02;103591.38;5032872;28;96782;-28
2023/01/22 09:32:57;;;;;;;1.70;0.82;;;;;;;0.76;91.60;103595.88;5032572;28;101074;-29
2023/01/22 09:35:23;;;;;;;2.10;1.45;;;;;;;0.73;91.38;103602.06;5034490;28;97872;-29
2023/01/22 09:37:48;;;;;;;0.38;0.38;;;;;;;0.75;91.29;103602.09;5034152;28;96482;-29
2023/01/22 09:40:30;;;;;;;0.82;0.65;;;;;;;0.79;91.25;103604.88;5034371;28;96785;-28
2023/01/22 09:43:02;;;;;;;;;;;;;;;0.80;91.46;103612.00;5032629;28;100900;-28
2023/01/22 09:45:28;;;;;;;2.40;1.58;;;;;;;0.79;91.23;103609.31;5032391;28;101010;-29
2023/01/22 09:47:58;;;;;;;3.22;1.50;;;;;;;0.78;90.63;103607.50;5034140;27;96471;-30
2023/01/22 09:50:30;;;;;;;2.35;1.95;;;;;;;0.78;91.08;103604.81;5032597;28;96740;-28
2023/01/22 09:53:00;;;;;;;2.00;1.77;;;;;;;0.78;91.17;103605.72;5034148;27;100083;-28
2023/01/22 09:55:29;;;;;;;0.47;0.47;;;;;;;0.78;90.86;103603.06;5032252;28;100828;-29
2023/01/22 09:58:00;;;;;;;1.67;1.17;;;;;;;0.79;91.07;103612.00;5032441;28;96687;-28
2023/01/22 10:00:43;;;;;;;1.95;1.20;;;;;;;0.80;90.89;103605.78;5035053;28;96552;-29
2023/01/22 10:03:41;;;;;;;0.95;0.73;;;;;;;0.83;91.13;103612.09;5035852;28;101269;-28
2023/01/22 10:06:17;;;;;;;1.55;1.23;;;;;;;0.87;90.89;103604.16;5037129;28;97470;-28
2023/01/22 10:09:06;;;;;;;0.65;0.47;;;;;;;0.91;90.96;103611.38;5036865;27;96675;-29
2023/01/22 10:11:32;;;;;;;0.45;0.45;;;;;;;0.95;90.26;103599.88;5036570;27;96789;-28
2023/01/22 10:14:00;;;;;;;0.35;0.32;;;;;;;1.00;90.37;103607.16;5035498;28;100741;-28
2023/01/22 10:16:26;;;;;;;1.23;0.77;;;;;;;0.97;90.25;103599.03;5035203;28;100885;-29
2023/01/22 10:18:57;;;;;;;0.98;0.63;;;;;;;1.02;90.13;103593.81;5035943;27;97039;-28
2023/01/22 10:21:26;;;;;;;1.05;0.95;;;;;;;1.04;89.87;103592.97;5035801;28;96659;-30
2023/01/22 10:23:54;;;;;;;1.02;0.63;;;;;;;1.09;90.08;103587.75;5034686;28;98900;-28
2023/01/22 10:26:45;;;;;;;1.40;0.88;;;;;;;1.09;90.18;103595.75;5035692;28;101204;-28
2023/01/22 10:29:33;;;;;;;0.73;0.63;;;;;;;1.04;89.77;103592.09;5036928;28;96705;-28
2023/01/22 10:32:16;;;;;;;0.38;0.38;;;;;;;1.14;90.02;103601.19;5034146;28;97110;-30
2023/01/22 10:34:42;;;;;;;1.35;1.10;;;;;;;1.11;89.64;103596.69;5032081;28;101085;-30
2023/01/22 10:37:17;;;;;;;1.10;0.50;;;;;;;1.14;89.88;103596.75;5034460;28;97504;-34
2023/01/22 10:39:46;;;;;;;0.98;0.90;;;;;;;1.22;89.88;103586.28;5034358;27;96593;-29
2023/01/22 10:42:20;;;;;;;1.55;1.23;;;;;;;1.25;89.58;103594.34;5033055;28;96929;-29
2023/01/22 10:44:46;;;;;;;2.58;1.08;;;;;;;1.29;89.59;103596.22;5034202;27;99903;-32
2023/01/22 10:47:25;;;;;;;0.90;0.90;;;;;;;1.36;89.48;103594.53;5036415;27;97813;-28
2023/01/22 10:50:18;;;;;;;0.50;0.50;;;;;;;1.38;89.72;103593.75;5036049;28;96690;-28
2023/01/22 10:52:56;;;;;;;0.50;0.50;;;;;;;1.39;89.66;103608.00;5035604;28;96639;-29
2023/01/22 10:55:28;;;;;;;0.80;0.80;;;;;;;1.39;89.73;103602.66;5036498;27;98019;-28
2023/01/22 10:58:06;;;;;;;1.25;0.98;;;;;;;1.38;89.50;103606.16;5035686;28;97774;-37
2023/01/22 11:00:37;;;;;;;2.97;0.98;;;;;;;1.33;89.75;103594.50;5035855;28;96694;-31
2023/01/22 11:03:36;;;;;;;1.30;1.03;;;;;;;1.34;89.91;103605.22;5034945;28;96945;-31
2023/01/22 11:06:42;;;;;;;2.22;1.70;;;;;;;1.30;89.77;103597.09;5018795;28;100942;-31
2023/01/22 11:09:16;;;;;;;0.50;0.50;;;;;;;1.26;90.01;103591.72;5035026;28;99367;-29
2023/01/22 11:11:48;;;;;;;1.50;1.05;;;;;;;1.23;90.25;103575.59;5034639;27;96754;-29
2023/01/22 11:14:40;;;;;;;0.60;0.57;;;;;;;1.22;89.74;103584.50;5035070;28;96612;-30
2023/01/22 11:17:16;;;;;;;1.33;0.90;;;;;;;1.19;89.63;103581.78;5035207;27;97906;-29
2023/01/22 11:19:53;;;;;;;1.50;0.57;;;;;;;1.16;90.00;103579.00;5034870;28;101445;-29
2023/01/22 11:22:25;;;;;;;0.35;0.32;;;;;;;1.15;89.84;103577.22;5034668;28;96899;-30
2023/01/22 11:24:50;;;;;;;0.45;0.45;;;;;;;1.18;89.55;103574.59;5034554;28;96957;-28
2023/01/22 11:27:34;;;;;;;0.88;0.80;;;;;;;1.25;89.75;103579.22;5035064;28;99398;-28
2023/01/22 11:30:16;;;;;;;1.08;0.98;;;;;;;1.27;89.58;103572.13;5034415;28;100763;-29
2023/01/22 11:33:07;;;;;;;1.05;0.90;;;;;;;1.31;89.42;103567.78;5036356;27;96582;-29
2023/01/22 11:35:36;;;;;;;1.73;1.27;;;;;;;1.34;89.41;103567.84;5036292;28;96669;-29
2023/01/22 11:38:14;;;;;;;0.30;0.30;;;;;;;1.37;89.37;103557.22;5035487;28;99366;-28
2023/01/22 11:41:13;;;;;;;0.63;0.63;;;;;;;1.48;89.63;103554.78;5034074;28;100894;-29